Time;durP1;ratioP1;P1;durP2;ratioP2;P2;SDS_P1;SDS_P2;PMS_P1;PMS_P2;Temp;Humidity;BMP_temperature;BMP_pressure;BME280_temperature;BME280_humidity;BME280_pressure;Samples;Min_cycle;Max_cycle;Signal;HPM_P1;HPM_P2
2023/12/21 00:01:20;;;;;;;13.00;9.13;;;9.20;99.90;;;;;;5031733;28;20221;-76
2023/12/21 00:03:48;;;;;;;10.77;8.77;;;9.30;99.90;;;;;;5026216;28;20205;-76
2023/12/21 00:06:15;;;;;;;9.93;8.80;;;9.30;99.90;;;;;;5020494;28;20195;-76
2023/12/21 00:08:42;;;;;;;13.17;10.00;;;9.30;99.90;;;;;;5021743;28;20199;-76
2023/12/21 00:11:10;;;;;;;14.77;10.43;;;9.30;99.90;;;;;;5027542;28;20234;-76
2023/12/21 00:13:40;;;;;;;11.67;9.53;;;9.30;99.90;;;;;;5019349;28;20195;-76
2023/12/21 00:16:07;;;;;;;14.73;9.80;;;9.30;99.90;;;;;;5014744;28;20206;-76
2023/12/21 00:18:35;;;;;;;14.37;11.77;;;9.30;99.90;;;;;;5017751;28;20214;-76
2023/12/21 00:21:02;;;;;;;13.27;10.90;;;9.40;99.90;;;;;;5037204;28;20215;-76
2023/12/21 00:23:30;;;;;;;13.63;10.70;;;9.30;99.90;;;;;;5022370;28;20191;-76
2023/12/21 00:25:57;;;;;;;14.73;10.73;;;9.40;99.90;;;;;;5034147;28;20183;-75
2023/12/21 00:28:24;;;;;;;13.57;10.60;;;9.40;99.90;;;;;;5023481;28;20218;-75
2023/12/21 00:30:53;;;;;;;15.10;11.23;;;9.40;99.90;;;;;;5037232;28;20262;-75
2023/12/21 00:33:20;;;;;;;14.77;11.20;;;9.40;99.90;;;;;;5051490;28;20187;-75
2023/12/21 00:35:48;;;;;;;15.87;11.13;;;9.40;99.90;;;;;;5021763;28;20187;-76
2023/12/21 00:38:15;;;;;;;13.73;11.07;;;9.40;99.90;;;;;;5033554;28;20195;-75
2023/12/21 00:40:43;;;;;;;15.10;10.47;;;9.40;99.90;;;;;;5035172;28;20199;-75
2023/12/21 00:43:10;;;;;;;14.73;10.97;;;9.50;99.90;;;;;;5021441;28;20198;-76
2023/12/21 00:45:37;;;;;;;13.77;10.47;;;9.50;99.90;;;;;;5034078;28;20202;-75
2023/12/21 00:48:07;;;;;;;13.70;11.40;;;9.50;99.90;;;;;;5025640;28;20220;-76
2023/12/21 00:50:35;;;;;;;14.70;10.80;;;9.50;99.90;;;;;;5018583;28;20203;-76
2023/12/21 00:53:02;;;;;;;13.27;10.87;;;9.50;99.90;;;;;;5032183;28;20218;-75
2023/12/21 00:55:29;;;;;;;14.93;11.43;;;9.50;99.90;;;;;;5024259;28;20199;-76
2023/12/21 00:57:57;;;;;;;15.37;10.50;;;9.50;99.90;;;;;;5018243;28;20195;-76
2023/12/21 01:00:25;;;;;;;14.83;10.23;;;9.50;99.90;;;;;;5026134;28;20199;-76
2023/12/21 01:02:52;;;;;;;12.67;10.13;;;9.60;99.90;;;;;;5027516;28;20226;-75
2023/12/21 01:05:23;;;;;;;18.00;10.57;;;9.60;99.90;;;;;;5027547;28;20198;-76
2023/12/21 01:07:51;;;;;;;12.00;9.57;;;9.60;99.90;;;;;;5030727;28;20823;-76
2023/12/21 01:10:18;;;;;;;10.30;8.10;;;9.60;99.90;;;;;;5033343;28;20199;-76
2023/12/21 01:12:46;;;;;;;10.40;8.67;;;9.60;99.90;;;;;;5016906;28;20226;-76
2023/12/21 01:15:13;;;;;;;8.97;6.90;;;9.60;99.90;;;;;;5019005;28;20199;-76
2023/12/21 01:17:41;;;;;;;12.03;9.23;;;9.60;99.90;;;;;;5029430;28;20198;-75
2023/12/21 01:20:09;;;;;;;11.43;8.77;;;9.60;99.90;;;;;;5027426;28;20199;-75
2023/12/21 01:22:38;;;;;;;11.13;8.60;;;9.60;99.90;;;;;;5045448;28;20225;-76
2023/12/21 01:25:06;;;;;;;10.83;8.67;;;9.60;99.90;;;;;;5021724;28;20195;-76
2023/12/21 01:27:33;;;;;;;11.13;8.57;;;9.60;99.90;;;;;;5021980;28;20221;-76
2023/12/21 01:30:01;;;;;;;10.63;7.93;;;9.60;99.90;;;;;;5029044;28;20206;-76
2023/12/21 01:32:28;;;;;;;9.17;7.60;;;9.60;99.90;;;;;;5041183;28;20692;-75
2023/12/21 01:34:56;;;;;;;9.67;8.33;;;9.70;99.90;;;;;;5035961;28;20203;-75
2023/12/21 01:37:23;;;;;;;9.23;7.17;;;9.70;99.90;;;;;;5035705;28;20688;-75
2023/12/21 01:39:52;;;;;;;9.40;7.73;;;9.70;99.90;;;;;;5023201;28;20564;-76
2023/12/21 01:42:19;;;;;;;8.90;7.10;;;9.70;99.90;;;;;;5034624;28;20221;-76
2023/12/21 01:44:46;;;;;;;10.10;8.27;;;9.70;99.90;;;;;;5025154;28;20202;-76
2023/12/21 01:47:14;;;;;;;11.17;8.20;;;9.70;99.90;;;;;;5019551;28;20199;-76
2023/12/21 01:49:42;;;;;;;11.97;8.53;;;9.70;99.90;;;;;;5018315;28;20219;-76
2023/12/21 01:52:11;;;;;;;10.60;8.37;;;9.70;99.90;;;;;;5032411;28;20229;-76
2023/12/21 01:54:38;;;;;;;11.03;8.97;;;9.70;99.90;;;;;;5026630;28;20214;-76
2023/12/21 01:57:07;;;;;;;8.43;7.07;;;9.70;99.90;;;;;;5045127;28;20194;-76
2023/12/21 01:59:35;;;;;;;9.60;8.70;;;9.70;99.90;;;;;;5022896;28;20198;-76
2023/12/21 02:02:03;;;;;;;10.60;8.23;;;9.70;99.90;;;;;;5023791;28;20226;-76
2023/12/21 02:04:30;;;;;;;8.77;7.87;;;9.80;99.90;;;;;;5015477;28;20236;-76
2023/12/21 02:06:57;;;;;;;14.83;8.67;;;9.80;99.90;;;;;;5020612;28;20195;-76
2023/12/21 02:09:25;;;;;;;11.30;8.73;;;9.80;99.90;;;;;;5027153;28;20203;-76
2023/12/21 02:11:52;;;;;;;9.83;8.30;;;9.80;99.90;;;;;;5028613;28;20226;-75
2023/12/21 02:14:21;;;;;;;10.97;8.83;;;9.80;99.90;;;;;;5016120;28;20211;-76
2023/12/21 02:16:56;;;;;;;14.13;9.33;;;9.70;99.90;;;;;;5020438;28;20191;-76
2023/12/21 02:19:24;;;;;;;11.07;9.27;;;9.80;99.90;;;;;;5015484;28;20565;-76
2023/12/21 02:21:55;;;;;;;11.93;8.77;;;9.80;99.90;;;;;;5020694;28;20220;-76
2023/12/21 02:24:24;;;;;;;11.77;8.67;;;9.80;99.90;;;;;;5041161;28;20195;-76
2023/12/21 02:26:51;;;;;;;10.53;8.80;;;9.80;99.90;;;;;;5021010;28;20199;-76
2023/12/21 02:29:19;;;;;;;11.40;8.77;;;9.80;99.90;;;;;;5027706;28;20221;-75
2023/12/21 02:31:46;;;;;;;12.30;9.30;;;9.80;99.90;;;;;;5016624;28;20219;-76
2023/12/21 02:34:13;;;;;;;12.13;9.90;;;9.80;99.90;;;;;;5024528;28;20202;-76
2023/12/21 02:36:41;;;;;;;10.83;9.57;;;9.80;99.90;;;;;;5025215;28;20204;-76
2023/12/21 02:39:08;;;;;;;10.93;9.43;;;9.80;99.90;;;;;;5024633;28;20191;-76
2023/12/21 02:41:37;;;;;;;10.90;9.20;;;9.80;99.90;;;;;;5014804;28;20230;-76
2023/12/21 02:44:04;;;;;;;13.83;10.43;;;9.80;99.90;;;;;;5014960;28;20205;-76
2023/12/21 02:46:32;;;;;;;11.63;9.30;;;9.80;99.90;;;;;;5021123;28;20210;-76
2023/12/21 02:49:00;;;;;;;13.47;10.80;;;9.90;99.90;;;;;;5025728;28;20218;-76
2023/12/21 02:51:27;;;;;;;9.47;7.23;;;9.90;99.90;;;;;;5021593;28;20222;-76
2023/12/21 02:53:54;;;;;;;10.97;9.37;;;9.80;99.90;;;;;;5026734;28;20199;-76
2023/12/21 02:56:22;;;;;;;11.07;8.53;;;9.80;99.90;;;;;;5028553;28;20213;-76
2023/12/21 02:58:50;;;;;;;11.33;8.90;;;9.80;99.90;;;;;;5043755;28;20204;-76
2023/12/21 03:01:18;;;;;;;10.23;8.17;;;9.90;99.90;;;;;;5042662;28;20214;-76
2023/12/21 03:03:45;;;;;;;12.07;8.30;;;9.90;99.90;;;;;;5035052;28;20195;-76
2023/12/21 03:06:12;;;;;;;10.50;9.40;;;9.90;99.90;;;;;;5032457;28;20205;-76
2023/12/21 03:08:40;;;;;;;9.97;8.50;;;9.90;99.90;;;;;;5021619;28;20683;-75
2023/12/21 03:11:07;;;;;;;9.03;8.10;;;9.90;99.90;;;;;;5041896;28;20222;-75
2023/12/21 03:13:35;;;;;;;9.83;8.37;;;9.90;99.90;;;;;;5025687;28;20210;-76
2023/12/21 03:16:07;;;;;;;13.53;9.87;;;9.90;99.90;;;;;;5032989;28;20206;-76
2023/12/21 03:18:34;;;;;;;9.80;8.23;;;10.00;99.90;;;;;;5027339;28;20207;-76
2023/12/21 03:21:01;;;;;;;10.60;8.67;;;9.90;99.90;;;;;;5044979;28;20281;-76
2023/12/21 03:23:29;;;;;;;9.40;8.30;;;9.90;99.90;;;;;;5028115;28;20198;-76
2023/12/21 03:25:56;;;;;;;11.53;8.07;;;9.90;99.90;;;;;;5029637;28;20190;-76
2023/12/21 03:28:23;;;;;;;9.83;7.83;;;9.90;99.90;;;;;;5033941;28;20203;-76
2023/12/21 03:30:51;;;;;;;9.57;7.90;;;9.90;99.90;;;;;;5021690;28;20210;-76
2023/12/21 03:33:19;;;;;;;7.17;6.47;;;9.90;99.90;;;;;;5014712;28;20210;-75
2023/12/21 03:35:47;;;;;;;10.97;8.13;;;9.90;99.90;;;;;;5032483;28;20195;-76
2023/12/21 03:38:14;;;;;;;8.63;7.37;;;9.90;99.90;;;;;;5037627;28;20187;-76
2023/12/21 03:40:42;;;;;;;8.13;7.27;;;9.90;99.90;;;;;;5025908;28;20199;-75
2023/12/21 03:43:09;;;;;;;7.07;6.37;;;9.90;99.90;;;;;;5033657;28;20205;-76
2023/12/21 03:45:40;;;;;;;9.33;6.87;;;9.90;99.90;;;;;;5038365;28;20198;-76
2023/12/21 03:48:08;;;;;;;8.20;6.77;;;9.90;99.90;;;;;;5014750;28;20202;-76
2023/12/21 03:50:37;;;;;;;8.83;7.27;;;9.90;99.90;;;;;;5017540;28;20574;-76
2023/12/21 03:53:07;;;;;;;7.53;6.70;;;9.90;99.90;;;;;;5049158;28;20210;-75
2023/12/21 03:55:36;;;;;;;8.90;6.50;;;9.90;99.90;;;;;;5019902;28;20195;-76
2023/12/21 03:58:04;;;;;;;7.20;6.50;;;9.90;99.90;;;;;;5022228;28;20198;-76
2023/12/21 04:00:31;;;;;;;10.30;6.17;;;9.90;99.90;;;;;;5026893;28;20205;-76
2023/12/21 04:03:02;;;;;;;8.57;7.43;;;9.90;99.90;;;;;;5029995;28;20222;-75
2023/12/21 04:05:29;;;;;;;7.63;6.73;;;9.90;99.90;;;;;;5020726;28;20206;-75
2023/12/21 04:07:58;;;;;;;8.87;6.67;;;9.90;99.90;;;;;;5018710;28;20199;-76
2023/12/21 04:10:25;;;;;;;7.17;6.07;;;9.90;99.90;;;;;;5025881;28;20675;-76
2023/12/21 04:12:53;;;;;;;8.53;7.20;;;9.90;99.90;;;;;;5034255;28;20214;-76
2023/12/21 04:15:20;;;;;;;8.40;6.50;;;9.90;99.90;;;;;;5053603;28;20209;-76
2023/12/21 04:17:48;;;;;;;7.07;6.37;;;9.90;99.90;;;;;;5030146;28;20214;-76
2023/12/21 04:20:15;;;;;;;7.07;6.37;;;9.90;99.90;;;;;;5026008;28;20202;-76
2023/12/21 04:22:42;;;;;;;8.23;6.20;;;9.90;99.90;;;;;;5030657;28;20222;-76
2023/12/21 04:25:11;;;;;;;8.97;6.33;;;9.90;99.90;;;;;;5030483;28;20197;-76
2023/12/21 04:27:39;;;;;;;7.67;6.30;;;9.90;99.90;;;;;;5026229;28;20202;-76
2023/12/21 04:30:07;;;;;;;7.03;5.63;;;9.90;99.90;;;;;;5020672;28;20214;-76
2023/12/21 04:32:35;;;;;;;5.93;5.33;;;9.90;99.90;;;;;;5042860;28;20730;-76
2023/12/21 04:35:02;;;;;;;7.30;6.60;;;9.90;99.90;;;;;;5028668;28;20199;-76
2023/12/21 04:37:30;;;;;;;8.17;5.77;;;9.90;99.90;;;;;;5017766;28;20199;-76
2023/12/21 04:39:57;;;;;;;7.47;6.23;;;10.00;99.90;;;;;;5027340;28;20202;-76
2023/12/21 04:42:26;;;;;;;7.40;6.53;;;9.90;99.90;;;;;;5017192;28;20219;-76
2023/12/21 04:44:53;;;;;;;7.87;6.60;;;9.90;99.90;;;;;;5042498;28;20195;-76
2023/12/21 04:47:21;;;;;;;7.33;6.40;;;9.90;99.90;;;;;;5047428;28;20546;-76
2023/12/21 04:49:48;;;;;;;7.63;6.20;;;9.90;99.90;;;;;;5035262;28;20217;-75
2023/12/21 04:52:16;;;;;;;7.10;5.50;;;9.90;99.90;;;;;;5026879;28;20583;-76
2023/12/21 04:54:44;;;;;;;8.83;6.33;;;9.90;99.90;;;;;;5036822;28;20198;-76
2023/12/21 04:57:11;;;;;;;6.80;6.17;;;9.90;99.90;;;;;;5037115;28;20206;-76
2023/12/21 04:59:41;;;;;;;7.37;6.27;;;9.90;99.90;;;;;;5029646;28;20199;-76
2023/12/21 05:02:09;;;;;;;7.87;5.90;;;9.90;99.90;;;;;;5039549;28;20585;-76
2023/12/21 05:04:36;;;;;;;8.20;5.20;;;9.90;99.90;;;;;;5034843;28;20661;-76
2023/12/21 05:07:08;;;;;;;5.27;4.60;;;9.90;99.90;;;;;;5017139;28;20210;-78
2023/12/21 05:09:36;;;;;;;7.13;5.60;;;9.90;99.90;;;;;;5016988;28;20218;-75
2023/12/21 05:12:04;;;;;;;5.80;5.30;;;9.90;99.90;;;;;;5016540;28;20227;-76
2023/12/21 05:14:32;;;;;;;7.63;5.40;;;9.90;99.90;;;;;;5046660;28;20707;-76
2023/12/21 05:17:01;;;;;;;6.67;5.27;;;9.90;99.90;;;;;;5033920;28;20205;-76
2023/12/21 05:19:28;;;;;;;6.07;5.20;;;9.90;99.90;;;;;;5031562;28;20191;-76
2023/12/21 05:21:56;;;;;;;6.03;4.67;;;9.90;99.90;;;;;;5026368;28;20229;-76
2023/12/21 05:24:24;;;;;;;6.23;4.23;;;9.90;99.90;;;;;;5049104;28;20198;-76
2023/12/21 05:26:51;;;;;;;5.70;3.93;;;10.00;99.90;;;;;;5020977;28;20197;-76
2023/12/21 05:29:19;;;;;;;6.73;4.40;;;10.00;99.90;;;;;;5028254;28;20217;-76
2023/12/21 05:31:46;;;;;;;5.73;4.00;;;10.00;99.90;;;;;;5016402;28;20223;-76
2023/12/21 05:34:15;;;;;;;4.00;3.60;;;10.00;99.90;;;;;;5018280;28;20198;-75
2023/12/21 05:36:42;;;;;;;4.83;4.07;;;10.00;99.90;;;;;;5016720;28;20217;-76
2023/12/21 05:39:12;;;;;;;4.10;3.70;;;10.00;99.90;;;;;;5020222;28;20645;-76
2023/12/21 05:41:40;;;;;;;4.93;4.43;;;10.00;99.90;;;;;;5028729;28;20221;-76
2023/12/21 05:44:07;;;;;;;4.40;4.00;;;10.00;99.90;;;;;;5036627;28;20194;-76
2023/12/21 05:47:10;;;;;;;4.87;4.13;;;10.00;99.90;;;;;;5030539;28;20223;-76
2023/12/21 05:49:39;;;;;;;5.20;4.63;;;10.00;99.90;;;;;;5016759;28;20206;-76
2023/12/21 05:52:06;;;;;;;5.27;4.37;;;10.00;99.90;;;;;;5015973;28;20238;-76
2023/12/21 05:54:34;;;;;;;6.60;5.10;;;10.00;99.90;;;;;;5016037;28;20210;-76
2023/12/21 05:57:02;;;;;;;6.73;5.43;;;10.10;99.90;;;;;;5015941;28;20199;-76
2023/12/21 05:59:29;;;;;;;6.47;4.93;;;10.00;99.90;;;;;;5016322;28;20202;-76
2023/12/21 06:01:56;;;;;;;9.57;4.90;;;10.10;99.90;;;;;;5029748;28;20215;-76
2023/12/21 06:04:24;;;;;;;8.43;5.63;;;10.10;99.90;;;;;;5032776;28;20203;-76
2023/12/21 06:06:52;;;;;;;7.80;6.07;;;10.10;99.90;;;;;;5048681;28;20194;-76
2023/12/21 06:09:20;;;;;;;8.17;6.97;;;10.10;99.90;;;;;;5029312;28;20218;-76
2023/12/21 06:11:47;;;;;;;8.87;5.43;;;10.10;99.90;;;;;;5015118;28;20223;-76
2023/12/21 06:14:15;;;;;;;7.93;6.27;;;10.10;99.90;;;;;;5026732;28;20683;-76
2023/12/21 06:16:42;;;;;;;9.80;6.90;;;10.10;99.90;;;;;;5027004;28;20224;-76
2023/12/21 06:19:10;;;;;;;12.50;6.90;;;10.20;99.90;;;;;;5020695;28;20215;-77
2023/12/21 06:21:38;;;;;;;10.27;7.40;;;10.20;99.90;;;;;;5014869;28;20226;-77
2023/12/21 06:24:15;;;;;;;7.57;6.23;;;10.40;99.90;;;;;;5029188;28;20230;-77
2023/12/21 06:26:43;;;;;;;7.90;5.63;;;10.20;99.90;;;;;;5030065;28;20213;-77
2023/12/21 06:29:12;;;;;;;11.70;7.37;;;10.20;99.90;;;;;;5025864;28;20211;-77
2023/12/21 06:31:53;;;;;;;8.00;5.90;;;10.20;99.90;;;;;;5016771;28;20230;-77
2023/12/21 06:34:21;;;;;;;9.87;6.03;;;10.20;99.90;;;;;;5028859;28;20194;-77
2023/12/21 06:36:48;;;;;;;9.20;6.93;;;10.20;99.90;;;;;;5042130;28;20221;-77
2023/12/21 06:39:25;;;;;;;8.83;7.30;;;10.20;99.90;;;;;;5029572;28;20205;-77
2023/12/21 06:41:53;;;;;;;9.60;6.70;;;10.20;99.90;;;;;;5030067;28;20226;-78
2023/12/21 06:44:20;;;;;;;9.20;7.13;;;10.30;99.90;;;;;;5016094;28;20210;-77
2023/12/21 06:46:50;;;;;;;8.77;6.97;;;10.20;99.90;;;;;;5036967;28;20194;-77
2023/12/21 06:49:18;;;;;;;9.93;7.23;;;10.20;99.90;;;;;;5018963;28;20210;-77
2023/12/21 06:51:45;;;;;;;8.73;6.67;;;10.20;99.90;;;;;;5022737;28;20222;-77
2023/12/21 06:54:13;;;;;;;10.73;7.80;;;10.30;99.90;;;;;;5026658;28;20202;-77
2023/12/21 06:56:41;;;;;;;11.40;7.00;;;10.30;99.90;;;;;;5022923;28;20207;-77
2023/12/21 06:59:09;;;;;;;12.83;7.57;;;10.30;99.90;;;;;;5025353;28;20202;-77
2023/12/21 07:01:36;;;;;;;11.13;6.97;;;10.30;99.90;;;;;;5023828;28;20214;-77
2023/12/21 07:04:04;;;;;;;11.80;6.63;;;10.30;99.90;;;;;;5035276;28;20221;-77
2023/12/21 07:06:31;;;;;;;13.23;8.73;;;10.30;99.90;;;;;;5034739;28;20195;-78
2023/12/21 07:08:59;;;;;;;9.93;7.67;;;10.30;99.90;;;;;;5027476;28;20214;-78
2023/12/21 07:11:28;;;;;;;11.30;8.47;;;10.30;99.90;;;;;;5014134;28;20563;-77
2023/12/21 07:13:57;;;;;;;12.77;7.37;;;10.30;99.90;;;;;;5041663;22;20221;-77
2023/12/21 07:16:25;;;;;;;11.80;7.20;;;10.30;99.90;;;;;;5030347;28;20206;-77
2023/12/21 07:18:52;;;;;;;10.87;7.83;;;10.30;99.90;;;;;;5024666;28;20210;-77
2023/12/21 07:21:20;;;;;;;12.27;9.00;;;10.30;99.90;;;;;;5027483;28;20199;-77
2023/12/21 07:23:48;;;;;;;11.47;8.17;;;10.30;99.90;;;;;;5025060;28;20218;-76
2023/12/21 07:26:31;;;;;;;13.10;8.60;;;10.30;99.90;;;;;;5010964;28;20199;-78
2023/12/21 07:28:59;;;;;;;14.97;8.27;;;10.30;99.90;;;;;;5032795;28;20187;-78
2023/12/21 07:31:27;;;;;;;13.40;7.57;;;10.30;99.90;;;;;;5032252;28;20203;-79
2023/12/21 07:33:54;;;;;;;12.60;7.47;;;10.30;99.90;;;;;;5014427;28;20226;-78
2023/12/21 07:36:21;;;;;;;11.23;6.80;;;10.30;99.90;;;;;;5009522;28;20584;-76
2023/12/21 07:38:49;;;;;;;9.43;6.33;;;10.30;99.90;;;;;;5011249;28;20207;-76
2023/12/21 07:41:16;;;;;;;9.03;7.17;;;10.20;99.90;;;;;;5014263;28;20202;-76
2023/12/21 07:43:44;;;;;;;9.90;7.73;;;10.20;99.90;;;;;;5015136;28;20218;-76
2023/12/21 07:46:14;;;;;;;10.50;8.20;;;10.20;99.90;;;;;;5010675;28;20192;-76
2023/12/21 07:48:42;;;;;;;9.07;7.33;;;10.20;99.90;;;;;;5011000;28;20194;-76
2023/12/21 07:51:10;;;;;;;8.50;6.80;;;10.30;99.90;;;;;;5024559;28;20250;-77
2023/12/21 07:53:41;;;;;;;11.20;6.97;;;10.30;99.90;;;;;;5014838;28;20222;-76
2023/12/21 07:56:09;;;;;;;8.57;7.23;;;10.30;99.90;;;;;;5014066;28;20207;-76
2023/12/21 07:58:36;;;;;;;10.10;6.13;;;10.30;99.90;;;;;;5007036;28;20210;-76
2023/12/21 08:01:05;;;;;;;6.90;5.43;;;10.20;99.90;;;;;;5034466;28;20197;-76
2023/12/21 08:03:33;;;;;;;6.23;5.30;;;10.30;99.90;;;;;;5033612;28;20691;-76
2023/12/21 08:06:01;;;;;;;8.00;5.80;;;10.30;99.90;;;;;;5014484;28;20206;-76
2023/12/21 08:08:29;;;;;;;7.30;5.70;;;10.30;99.90;;;;;;5014851;28;20206;-76
2023/12/21 08:10:56;;;;;;;8.43;5.93;;;10.30;99.90;;;;;;5016712;28;20199;-76
2023/12/21 08:13:24;;;;;;;6.03;5.30;;;10.30;99.90;;;;;;5026078;28;20226;-75
2023/12/21 08:15:52;;;;;;;7.47;6.60;;;10.30;99.90;;;;;;5041662;28;20203;-78
2023/12/21 08:18:23;;;;;;;7.70;6.70;;;10.40;99.90;;;;;;5032325;28;20191;-78
2023/12/21 08:20:52;;;;;;;10.37;7.30;;;10.40;99.90;;;;;;5029945;28;20191;-78
2023/12/21 08:23:19;;;;;;;12.23;7.37;;;10.40;99.90;;;;;;5022041;28;20234;-78
2023/12/21 08:25:46;;;;;;;8.57;6.97;;;10.40;99.90;;;;;;5042114;28;20198;-79
2023/12/21 08:28:14;;;;;;;11.47;7.43;;;10.40;99.90;;;;;;5049322;28;20194;-78
2023/12/21 08:30:42;;;;;;;8.83;6.57;;;10.40;99.90;;;;;;5031567;28;20202;-79
2023/12/21 08:33:09;;;;;;;8.30;6.70;;;10.40;99.90;;;;;;5014967;28;20222;-78
2023/12/21 08:35:37;;;;;;;7.20;5.20;;;10.40;99.90;;;;;;5028373;28;20203;-79
2023/12/21 08:38:05;;;;;;;10.30;6.20;;;10.40;99.90;;;;;;5022214;28;20199;-79
2023/12/21 08:40:33;;;;;;;7.97;5.70;;;10.40;99.90;;;;;;5017362;28;20227;-79
2023/12/21 08:43:01;;;;;;;8.00;5.80;;;10.40;99.90;;;;;;5029118;28;20222;-79
2023/12/21 08:45:29;;;;;;;7.50;6.17;;;10.40;99.90;;;;;;5026534;28;20203;-79
2023/12/21 08:47:57;;;;;;;9.97;6.20;;;10.40;99.90;;;;;;5027743;28;20215;-79
2023/12/21 08:50:24;;;;;;;9.83;6.10;;;10.40;99.90;;;;;;5030196;28;20213;-79
2023/12/21 08:52:52;;;;;;;7.07;5.20;;;10.50;99.90;;;;;;5022043;28;20226;-79
2023/12/21 08:55:20;;;;;;;5.90;4.70;;;10.50;99.90;;;;;;5035826;28;20206;-77
2023/12/21 08:57:48;;;;;;;6.20;4.20;;;10.50;99.90;;;;;;5020775;28;20203;-78
2023/12/21 09:00:16;;;;;;;5.97;3.57;;;10.50;99.90;;;;;;5054522;28;20190;-79
2023/12/21 09:02:43;;;;;;;9.43;4.70;;;10.50;99.90;;;;;;5040997;28;20218;-79
2023/12/21 09:05:12;;;;;;;7.43;4.67;;;10.50;99.90;;;;;;5047010;28;20205;-79
2023/12/21 09:07:39;;;;;;;6.60;4.47;;;10.50;99.90;;;;;;5022120;28;20195;-79
2023/12/21 09:10:08;;;;;;;6.57;4.80;;;10.60;99.90;;;;;;5023210;28;20198;-81
2023/12/21 09:12:37;;;;;;;5.70;3.60;;;10.60;99.90;;;;;;5042644;28;20230;-77
2023/12/21 09:15:09;;;;;;;5.33;3.83;;;10.60;99.90;;;;;;5023846;28;20214;-80
2023/12/21 09:17:36;;;;;;;6.40;4.40;;;10.60;99.90;;;;;;5024103;28;20203;-78
2023/12/21 09:20:08;;;;;;;7.70;4.70;;;10.50;99.90;;;;;;5029045;28;20203;-82
2023/12/21 09:22:36;;;;;;;6.30;4.10;;;10.60;99.90;;;;;;5023543;28;20230;-81
2023/12/21 09:25:04;;;;;;;6.30;4.13;;;10.60;99.90;;;;;;5026289;28;20203;-77
2023/12/21 09:27:34;;;;;;;4.43;3.90;;;10.60;99.90;;;;;;5018040;28;20209;-77
2023/12/21 09:30:06;;;;;;;4.50;3.47;;;10.60;99.90;;;;;;5018297;28;20210;-78
2023/12/21 09:32:35;;;;;;;5.87;3.47;;;10.70;99.90;;;;;;5019507;28;20233;-78
2023/12/21 09:35:03;;;;;;;3.20;2.83;;;10.70;99.90;;;;;;5020082;28;20191;-77
2023/12/21 09:37:39;;;;;;;3.67;2.67;;;10.70;99.90;;;;;;5022205;28;20198;-81
2023/12/21 09:40:13;;;;;;;3.27;2.77;;;10.70;99.90;;;;;;5017104;28;20200;-77
2023/12/21 09:42:54;;;;;;;3.50;2.43;;;10.70;99.90;;;;;;5030553;28;20226;-77
2023/12/21 09:45:26;;;;;;;4.53;2.13;;;10.70;99.90;;;;;;5012305;28;20649;-77
2023/12/21 09:48:07;;;;;;;3.37;2.43;;;10.70;99.90;;;;;;5016209;28;20206;-77
2023/12/21 09:50:43;;;;;;;3.50;1.93;;;10.70;99.90;;;;;;5012134;28;20531;-77
2023/12/21 09:53:18;;;;;;;4.03;1.97;;;10.70;99.90;;;;;;5015843;28;20227;-77
2023/12/21 09:55:49;;;;;;;4.30;1.57;;;10.70;99.90;;;;;;5018758;28;20209;-77
2023/12/21 09:58:20;;;;;;;3.67;1.60;;;10.80;99.90;;;;;;5016058;28;20195;-77
2023/12/21 10:00:54;;;;;;;1.97;1.53;;;10.80;99.90;;;;;;5035919;28;20210;-77
2023/12/21 10:03:25;;;;;;;3.10;1.50;;;10.80;99.90;;;;;;5015088;28;20214;-77
2023/12/21 10:05:56;;;;;;;2.80;1.30;;;10.80;99.90;;;;;;5016296;28;20199;-77
2023/12/21 10:08:27;;;;;;;2.70;1.70;;;10.80;99.90;;;;;;5022221;28;20195;-81
2023/12/21 10:10:55;;;;;;;2.43;1.23;;;10.80;99.90;;;;;;5014620;28;20283;-77
2023/12/21 10:13:28;;;;;;;2.67;1.40;;;10.80;99.90;;;;;;5015801;28;20222;-77
2023/12/21 10:16:00;;;;;;;1.73;1.37;;;10.80;99.90;;;;;;5036218;28;20219;-78
2023/12/21 10:18:36;;;;;;;3.70;1.37;;;10.80;99.90;;;;;;5034267;28;20652;-78
2023/12/21 10:21:08;;;;;;;1.80;1.30;;;10.80;99.90;;;;;;5015785;28;20202;-79
2023/12/21 10:23:41;;;;;;;1.93;1.37;;;10.80;99.90;;;;;;5015362;28;20214;-77
2023/12/21 10:26:09;;;;;;;3.07;1.43;;;10.90;99.90;;;;;;5015062;28;20203;-79
2023/12/21 10:28:36;;;;;;;1.40;1.20;;;10.80;99.90;;;;;;5015271;28;20198;-78
2023/12/21 10:31:05;;;;;;;1.87;1.30;;;10.80;99.90;;;;;;5014703;28;20568;-77
2023/12/21 10:33:32;;;;;;;1.47;0.90;;;10.90;99.90;;;;;;5041389;28;20223;-78
2023/12/21 10:36:01;;;;;;;1.87;1.43;;;10.90;99.90;;;;;;5015156;28;20206;-79
2023/12/21 10:38:28;;;;;;;1.83;1.50;;;10.90;99.90;;;;;;5037128;28;20199;-79
2023/12/21 10:40:56;;;;;;;1.70;1.43;;;10.90;99.90;;;;;;5032750;28;20199;-80
2023/12/21 10:43:31;;;;;;;2.77;1.53;;;10.90;99.90;;;;;;5031602;28;20230;-78
2023/12/21 10:45:59;;;;;;;1.50;1.33;;;10.90;99.90;;;;;;5016757;28;20207;-78
2023/12/21 10:48:32;;;;;;;1.43;1.20;;;10.90;99.90;;;;;;5013739;28;20199;-78
2023/12/21 10:51:01;;;;;;;2.03;1.43;;;10.90;99.90;;;;;;5014528;28;20195;-77
2023/12/21 10:53:29;;;;;;;1.40;1.17;;;10.90;99.90;;;;;;5010891;28;20218;-78
2023/12/21 10:55:58;;;;;;;2.47;1.80;;;11.00;99.90;;;;;;5013992;28;20214;-78
2023/12/21 10:58:27;;;;;;;2.37;1.90;;;11.00;99.90;;;;;;5036628;28;20667;-77
2023/12/21 11:00:55;;;;;;;3.03;2.10;;;11.00;99.90;;;;;;5016117;28;20214;-78
2023/12/21 11:03:25;;;;;;;2.40;2.00;;;11.00;99.90;;;;;;5014354;28;20226;-78
2023/12/21 11:05:55;;;;;;;2.43;2.07;;;11.00;99.90;;;;;;5014726;28;20206;-77
2023/12/21 11:08:23;;;;;;;3.40;3.10;;;11.10;99.90;;;;;;5011346;28;20187;-77
2023/12/21 11:10:51;;;;;;;5.53;4.07;;;11.10;99.90;;;;;;5016291;28;20207;-78
2023/12/21 11:13:18;;;;;;;4.80;4.40;;;11.20;99.90;;;;;;5014296;28;20223;-77
2023/12/21 11:15:46;;;;;;;5.80;4.83;;;11.20;99.90;;;;;;5014476;28;20199;-77
2023/12/21 11:18:18;;;;;;;7.20;5.80;;;11.20;99.90;;;;;;5035465;28;20193;-78
2023/12/21 11:20:51;;;;;;;7.00;6.37;;;11.20;99.90;;;;;;5022940;28;20203;-78
2023/12/21 11:23:20;;;;;;;8.17;6.13;;;11.20;99.90;;;;;;5016628;28;20218;-77
2023/12/21 11:25:55;;;;;;;7.83;6.47;;;11.30;99.90;;;;;;5040794;28;20195;-77
2023/12/21 11:28:28;;;;;;;7.07;6.10;;;11.30;99.90;;;;;;5008276;28;20203;-76
2023/12/21 11:30:56;;;;;;;8.17;6.33;;;11.50;99.90;;;;;;5016113;28;20198;-76
2023/12/21 11:33:28;;;;;;;5.97;4.83;;;11.60;99.90;;;;;;5033290;28;20215;-76
2023/12/21 11:35:57;;;;;;;8.00;5.73;;;11.50;99.90;;;;;;5015039;28;20203;-76
2023/12/21 11:38:42;;;;;;;7.17;5.10;;;11.70;99.90;;;;;;5031733;28;20203;-77
2023/12/21 11:41:10;;;;;;;7.00;4.87;;;11.80;99.90;;;;;;5014171;28;20198;-76
2023/12/21 11:43:37;;;;;;;8.63;5.47;;;11.50;99.90;;;;;;5013760;28;20223;-76
2023/12/21 11:46:05;;;;;;;6.73;4.37;;;11.50;99.90;;;;;;5017160;28;20210;-76
2023/12/21 11:48:33;;;;;;;6.87;4.00;;;11.50;99.90;;;;;;5017333;28;20202;-76
2023/12/21 11:51:01;;;;;;;4.50;3.43;;;11.50;99.90;;;;;;5015048;28;20557;-75
2023/12/21 11:53:30;;;;;;;7.93;3.40;;;11.50;99.90;;;;;;5008640;28;20234;-76
2023/12/21 11:56:01;;;;;;;6.40;3.47;;;11.50;99.90;;;;;;5015838;28;20205;-76
2023/12/21 11:58:28;;;;;;;4.20;2.70;;;11.50;99.90;;;;;;5032565;28;20195;-76
2023/12/21 12:00:58;;;;;;;4.63;2.40;;;11.50;99.90;;;;;;5032228;28;20203;-76
2023/12/21 12:03:27;;;;;;;3.50;2.20;;;11.50;99.90;;;;;;5016842;28;20217;-76
2023/12/21 12:06:00;;;;;;;4.73;1.93;;;11.50;99.90;;;;;;5013679;28;20576;-76
2023/12/21 12:08:42;;;;;;;3.83;1.60;;;11.50;99.90;;;;;;5013707;28;20195;-77
2023/12/21 12:11:11;;;;;;;5.03;1.43;;;11.60;99.90;;;;;;5034269;28;20202;-76
2023/12/21 12:13:38;;;;;;;5.27;2.10;;;11.50;99.90;;;;;;5012838;28;20230;-76
2023/12/21 12:16:18;;;;;;;4.87;1.60;;;11.50;99.90;;;;;;5012694;28;20207;-76
2023/12/21 12:18:46;;;;;;;5.17;1.30;;;11.50;99.90;;;;;;5022162;28;20199;-76
2023/12/21 12:21:52;;;;;;;3.07;1.40;;;11.50;99.90;;;;;;5031113;28;20209;-77
2023/12/21 12:24:22;;;;;;;3.97;1.53;;;11.50;99.90;;;;;;5016974;28;20218;-77
2023/12/21 12:26:49;;;;;;;2.80;1.33;;;11.40;99.90;;;;;;5016558;28;20357;-77
2023/12/21 12:29:17;;;;;;;2.63;1.20;;;11.50;99.90;;;;;;5014737;28;20679;-78
2023/12/21 12:31:45;;;;;;;2.10;1.50;;;11.50;99.90;;;;;;5029245;28;20205;-78
2023/12/21 12:34:17;;;;;;;3.47;1.10;;;11.50;99.90;;;;;;5034831;28;20218;-78
2023/12/21 12:36:53;;;;;;;3.23;0.90;;;11.60;99.90;;;;;;5032149;28;20207;-78
2023/12/21 12:39:23;;;;;;;5.10;1.13;;;11.50;99.90;;;;;;5023239;28;20546;-78
2023/12/21 12:41:55;;;;;;;3.13;1.00;;;11.50;99.90;;;;;;5021032;28;20234;-78
2023/12/21 12:44:23;;;;;;;4.17;1.13;;;11.50;99.90;;;;;;5031840;28;20197;-78
2023/12/21 12:46:50;;;;;;;3.27;1.20;;;11.50;99.90;;;;;;5047159;28;20206;-78
2023/12/21 12:49:26;;;;;;;3.07;1.40;;;11.50;99.90;;;;;;5040544;28;20195;-78
2023/12/21 12:51:54;;;;;;;3.33;1.07;;;11.50;99.90;;;;;;5022618;28;20207;-78
2023/12/21 12:54:23;;;;;;;3.57;1.37;;;11.50;99.90;;;;;;5020028;28;20225;-78
2023/12/21 12:56:51;;;;;;;2.60;1.00;;;11.40;99.90;;;;;;5043673;28;20195;-78